Time;durP1;ratioP1;P1;durP2;ratioP2;P2;SDS_P1;SDS_P2;PMS_P1;PMS_P2;Temp;Humidity;BMP_temperature;BMP_pressure;BME280_temperature;BME280_humidity;BME280_pressure;Samples;Min_cycle;Max_cycle;Signal;HPM_P1;HPM_P2
2021/11/22 00:01:27;;;;;;;8.20;3.70;;;3.80;99.90;;;;;;5016652;23;20030;-75
2021/11/22 00:03:28;;;;;;;;;;;3.80;99.90;;;;;;5018588;23;20387;-76
2021/11/22 00:05:29;;;;;;;6.63;3.08;;;3.70;99.90;;;;;;5018005;23;19917;-76
2021/11/22 00:07:29;;;;;;;10.63;3.50;;;3.80;99.90;;;;;;5016795;23;20101;-76
2021/11/22 00:09:32;;;;;;;10.50;3.22;;;3.90;99.90;;;;;;5017357;23;20407;-76
2021/11/22 00:11:33;;;;;;;7.90;3.75;;;4.00;99.90;;;;;;5016921;23;20034;-75
2021/11/22 00:13:34;;;;;;;7.53;3.78;;;4.00;99.90;;;;;;5017511;23;20022;-77
2021/11/22 00:15:35;;;;;;;8.98;3.47;;;4.10;99.90;;;;;;5017307;23;20407;-76
2021/11/22 00:17:37;;;;;;;6.93;3.47;;;4.10;99.90;;;;;;5015192;23;20003;-76
2021/11/22 00:19:37;;;;;;;12.25;4.30;;;4.10;99.90;;;;;;5018000;23;20007;-75
2021/11/22 00:21:38;;;;;;;13.68;4.90;;;4.10;99.90;;;;;;5016282;23;20434;-76
2021/11/22 00:23:39;;;;;;;11.10;3.75;;;4.10;99.90;;;;;;5017385;23;20015;-78
2021/11/22 00:25:40;;;;;;;8.82;3.25;;;4.00;99.90;;;;;;5017346;23;20031;-76
2021/11/22 00:27:41;;;;;;;9.57;4.07;;;4.10;99.90;;;;;;5017958;23;20368;-75
2021/11/22 00:29:42;;;;;;;7.38;3.33;;;4.00;99.90;;;;;;5016013;23;20015;-75
2021/11/22 00:31:47;;;;;;;7.07;3.53;;;4.10;99.90;;;;;;5017964;23;20010;-75
2021/11/22 00:33:48;;;;;;;5.57;3.88;;;4.10;99.90;;;;;;5017753;23;20019;-76
2021/11/22 00:35:50;;;;;;;13.48;3.63;;;4.00;99.90;;;;;;5016768;23;20308;-77
2021/11/22 00:37:51;;;;;;;10.32;4.60;;;4.00;99.90;;;;;;5017928;23;20015;-76
2021/11/22 00:39:52;;;;;;;10.45;3.53;;;4.00;99.90;;;;;;5015841;23;20070;-75
2021/11/22 00:41:52;;;;;;;7.88;3.15;;;4.00;99.90;;;;;;5017749;23;20023;-76
2021/11/22 00:43:56;;;;;;;14.43;3.70;;;3.90;99.90;;;;;;5016042;23;20102;-76
2021/11/22 00:45:57;;;;;;;3.80;3.40;;;3.80;99.90;;;;;;5017757;23;20045;-76
2021/11/22 00:47:59;;;;;;;8.20;3.58;;;3.70;99.90;;;;;;5016831;23;20500;-76
2021/11/22 00:50:00;;;;;;;8.77;3.97;;;3.50;99.90;;;;;;5017983;23;20523;-76
2021/11/22 00:52:01;;;;;;;8.45;3.38;;;3.40;99.90;;;;;;5015229;23;20022;-76
2021/11/22 00:54:01;;;;;;;10.40;3.45;;;3.40;99.90;;;;;;5017831;23;20015;-76
2021/11/22 00:56:02;;;;;;;7.35;3.25;;;3.40;99.90;;;;;;5017576;23;20355;-76
2021/11/22 00:58:03;;;;;;;7.20;3.90;;;3.40;99.90;;;;;;5017660;23;20015;-76
2021/11/22 01:00:08;;;;;;;14.52;4.50;;;3.40;99.90;;;;;;5018218;23;20666;-77
2021/11/22 01:02:09;;;;;;;11.45;4.30;;;3.40;99.90;;;;;;5015559;23;20050;-76
2021/11/22 01:04:09;;;;;;;13.93;3.53;;;3.40;99.90;;;;;;5017948;23;20427;-76
2021/11/22 01:06:10;;;;;;;12.88;3.72;;;3.40;99.90;;;;;;5017578;23;20011;-76
2021/11/22 01:08:11;;;;;;;7.43;3.47;;;3.50;99.90;;;;;;5017670;23;20161;-76
2021/11/22 01:10:14;;;;;;;8.52;3.53;;;3.40;99.90;;;;;;5015407;23;20013;-77
2021/11/22 01:12:14;;;;;;;8.93;3.88;;;3.40;99.90;;;;;;5017564;23;20011;-76
2021/11/22 01:14:15;;;;;;;8.55;4.13;;;3.40;99.90;;;;;;5017649;23;20015;-76
2021/11/22 01:16:16;;;;;;;10.85;3.25;;;3.40;99.90;;;;;;5017271;23;20019;-77
2021/11/22 01:18:17;;;;;;;14.50;3.75;;;3.40;99.90;;;;;;5015788;23;20019;-77
2021/11/22 01:20:21;;;;;;;10.50;3.53;;;3.50;99.90;;;;;;5017079;23;20372;-77
2021/11/22 01:22:23;;;;;;;7.53;4.43;;;3.50;99.90;;;;;;5017279;23;20023;-77
2021/11/22 01:24:25;;;;;;;12.25;3.75;;;3.50;99.90;;;;;;5018203;23;20017;-78
2021/11/22 01:26:25;;;;;;;10.90;3.65;;;3.40;99.90;;;;;;5017128;23;20150;-77
2021/11/22 01:28:29;;;;;;;7.85;3.60;;;3.40;99.90;;;;;;5017211;23;20038;-76
2021/11/22 01:30:30;;;;;;;9.50;3.75;;;3.40;99.90;;;;;;5016073;23;20432;-76
2021/11/22 01:32:31;;;;;;;7.10;4.65;;;3.40;99.90;;;;;;5014371;23;20011;-76
2021/11/22 01:34:32;;;;;;;6.63;3.63;;;3.40;99.90;;;;;;5014711;23;20006;-75
2021/11/22 01:36:32;;;;;;;9.25;3.88;;;3.40;99.90;;;;;;5015834;23;20474;-76
2021/11/22 01:38:33;;;;;;;8.95;3.88;;;3.40;99.90;;;;;;5015098;23;20074;-76
2021/11/22 01:40:34;;;;;;;8.98;3.25;;;3.30;99.90;;;;;;5015405;23;20034;-77
2021/11/22 01:42:37;;;;;;;11.77;3.50;;;3.30;99.90;;;;;;5014559;23;20046;-76
2021/11/22 01:44:38;;;;;;;5.78;3.70;;;3.30;99.90;;;;;;5014678;23;20015;-75
2021/11/22 01:46:39;;;;;;;14.90;4.05;;;3.30;99.90;;;;;;5017555;23;20499;-77
2021/11/22 01:48:39;;;;;;;8.30;3.85;;;3.30;99.90;;;;;;5016760;23;20007;-75
2021/11/22 01:50:41;;;;;;;11.23;3.40;;;3.20;99.90;;;;;;5013849;23;20014;-77
2021/11/22 01:52:43;;;;;;;13.25;4.05;;;3.10;99.90;;;;;;5014645;23;20019;-76
2021/11/22 01:54:43;;;;;;;7.30;3.80;;;3.10;99.90;;;;;;5016093;23;20011;-76
2021/11/22 01:56:46;;;;;;;8.90;3.92;;;3.10;99.90;;;;;;5016208;23;20011;-76
2021/11/22 01:58:48;;;;;;;9.02;3.53;;;3.10;99.90;;;;;;5016096;23;20011;-77
2021/11/22 02:00:53;;;;;;;8.43;3.72;;;3.00;99.90;;;;;;5014042;23;20010;-75
2021/11/22 02:02:54;;;;;;;8.15;3.63;;;3.00;99.90;;;;;;5014735;23;20431;-75
2021/11/22 02:04:55;;;;;;;10.95;4.82;;;2.90;99.90;;;;;;5016536;23;20026;-76
2021/11/22 02:06:56;;;;;;;8.85;4.25;;;2.80;99.90;;;;;;5015933;23;20015;-77
2021/11/22 02:08:56;;;;;;;7.03;3.40;;;2.70;99.90;;;;;;5017491;23;20518;-76
2021/11/22 02:10:57;;;;;;;7.72;3.53;;;2.70;99.90;;;;;;5017018;23;20447;-76
2021/11/22 02:12:58;;;;;;;12.48;4.30;;;2.70;99.90;;;;;;5015356;23;20011;-75
2021/11/22 02:15:00;;;;;;;6.10;3.72;;;2.60;99.90;;;;;;5014963;23;20015;-76
2021/11/22 02:17:01;;;;;;;9.43;3.83;;;2.60;99.90;;;;;;5016315;23;20395;-76
2021/11/22 02:19:04;;;;;;;12.60;3.78;;;2.70;99.90;;;;;;5016330;23;20011;-75
2021/11/22 02:21:04;;;;;;;10.88;4.20;;;2.70;99.90;;;;;;5014258;23;20059;-77
2021/11/22 02:23:08;;;;;;;8.82;4.25;;;2.60;99.90;;;;;;5016035;23;20068;-76
2021/11/22 02:25:10;;;;;;;10.90;3.53;;;2.60;99.90;;;;;;5014030;23;20034;-77
2021/11/22 02:27:10;;;;;;;10.93;3.63;;;2.60;99.90;;;;;;5017036;23;20011;-75
2021/11/22 02:29:11;;;;;;;8.68;3.90;;;2.70;99.90;;;;;;5016287;23;20018;-77
2021/11/22 02:31:12;;;;;;;12.20;4.22;;;2.70;99.90;;;;;;5016659;23;20014;-77
2021/11/22 02:33:16;;;;;;;6.43;3.72;;;2.80;99.90;;;;;;5015350;23;20017;-76
2021/11/22 02:35:20;;;;;;;17.55;4.20;;;2.80;99.90;;;;;;5015403;23;20023;-76
2021/11/22 02:37:22;;;;;;;10.85;3.70;;;2.80;99.90;;;;;;5017259;23;20011;-77
2021/11/22 02:39:22;;;;;;;11.57;3.88;;;2.70;99.90;;;;;;5016478;23;20070;-77
2021/11/22 02:41:23;;;;;;;10.25;4.63;;;2.60;99.90;;;;;;5015196;23;20074;-78
2021/11/22 02:43:24;;;;;;;9.98;3.85;;;2.50;99.90;;;;;;5014588;23;20015;-77
2021/11/22 02:45:26;;;;;;;13.13;4.80;;;2.50;99.90;;;;;;5017186;23;20014;-75
2021/11/22 02:47:27;;;;;;;7.50;4.05;;;2.60;99.90;;;;;;5017415;23;20013;-77
2021/11/22 02:49:27;;;;;;;6.05;3.50;;;2.50;99.90;;;;;;5017237;23;20035;-77
2021/11/22 02:51:28;;;;;;;8.13;4.05;;;2.50;99.90;;;;;;5017074;23;20003;-77
2021/11/22 02:53:29;;;;;;;16.77;4.65;;;2.50;99.90;;;;;;5018193;23;20003;-77
2021/11/22 02:55:30;;;;;;;6.82;3.50;;;2.50;99.90;;;;;;5017422;23;20071;-77
2021/11/22 02:57:31;;;;;;;7.30;4.43;;;2.50;99.90;;;;;;5017991;23;20011;-76
2021/11/22 02:59:32;;;;;;;8.23;4.38;;;2.40;99.90;;;;;;5018656;23;20010;-77
2021/11/22 03:01:37;;;;;;;11.75;4.22;;;2.40;99.90;;;;;;5018711;23;20450;-77
2021/11/22 03:03:37;;;;;;;15.18;4.95;;;2.50;99.90;;;;;;5016800;23;20427;-76
2021/11/22 03:05:38;;;;;;;15.15;4.78;;;2.50;99.90;;;;;;5018794;23;20011;-77
2021/11/22 03:07:39;;;;;;;16.23;4.18;;;2.50;99.90;;;;;;5016416;23;20436;-77
2021/11/22 03:09:40;;;;;;;15.00;4.30;;;2.40;99.90;;;;;;5018607;23;20443;-75
2021/11/22 03:11:40;;;;;;;15.23;4.45;;;2.40;99.90;;;;;;5016576;23;20086;-75
2021/11/22 03:13:43;;;;;;;15.48;4.18;;;2.40;99.90;;;;;;5018291;23;20458;-76
2021/11/22 03:15:44;;;;;;;11.38;4.03;;;2.30;99.90;;;;;;5018621;23;20006;-78
2021/11/22 03:17:45;;;;;;;9.77;4.20;;;2.10;99.90;;;;;;5016510;23;20018;-76
2021/11/22 03:19:45;;;;;;;11.07;4.00;;;2.10;99.90;;;;;;5019031;23;20011;-76
2021/11/22 03:21:47;;;;;;;10.80;4.38;;;2.10;99.90;;;;;;5016212;23;20015;-75
2021/11/22 03:23:47;;;;;;;7.78;3.90;;;2.10;99.90;;;;;;5016592;23;20018;-75
2021/11/22 03:25:48;;;;;;;12.32;4.72;;;2.10;99.90;;;;;;5018336;23;20006;-76
2021/11/22 03:27:50;;;;;;;4.97;4.00;;;2.20;99.90;;;;;;5018332;23;20439;-77
2021/11/22 03:29:50;;;;;;;19.15;5.47;;;2.20;99.90;;;;;;5016900;23;20031;-78
2021/11/22 03:31:51;;;;;;;13.00;4.65;;;2.30;99.90;;;;;;5016366;23;20014;-77
2021/11/22 03:33:52;;;;;;;11.18;4.50;;;2.20;99.90;;;;;;5018647;23;20444;-76
2021/11/22 03:35:55;;;;;;;5.28;3.90;;;2.20;99.90;;;;;;5018280;23;20333;-78
2021/11/22 03:37:55;;;;;;;11.80;4.88;;;2.20;99.90;;;;;;5016862;23;20011;-78
2021/11/22 03:39:56;;;;;;;10.48;5.35;;;2.10;99.90;;;;;;5018409;23;20033;-78
2021/11/22 03:41:59;;;;;;;14.48;5.10;;;2.10;99.90;;;;;;5015826;23;20074;-76
2021/11/22 03:44:10;;;;;;;14.90;5.25;;;2.10;99.90;;;;;;5018449;23;20046;-75
2021/11/22 03:46:11;;;;;;;18.40;5.88;;;2.20;99.90;;;;;;5015288;23;20010;-76
2021/11/22 03:48:11;;;;;;;10.75;4.63;;;2.30;99.90;;;;;;5018643;23;20030;-76
2021/11/22 03:50:12;;;;;;;10.82;5.00;;;2.30;99.90;;;;;;5018189;23;20007;-76
2021/11/22 03:52:13;;;;;;;10.05;4.93;;;2.30;99.90;;;;;;5018123;23;20011;-76
2021/11/22 03:54:14;;;;;;;16.77;5.22;;;2.40;99.90;;;;;;5018317;23;20018;-77
2021/11/22 03:56:15;;;;;;;9.30;4.68;;;2.40;99.90;;;;;;5017873;23;20103;-76
2021/11/22 03:58:15;;;;;;;13.88;5.35;;;2.40;99.90;;;;;;5018627;23;20011;-77
2021/11/22 04:00:16;;;;;;;11.25;4.97;;;2.30;99.90;;;;;;5018242;23;20034;-76
2021/11/22 04:02:17;;;;;;;10.07;4.80;;;2.20;99.90;;;;;;5017758;23;20133;-76
2021/11/22 04:04:17;;;;;;;12.60;5.32;;;2.10;99.90;;;;;;5017860;23;20432;-76
2021/11/22 04:06:18;;;;;;;16.50;6.03;;;2.10;99.90;;;;;;5016189;23;20046;-76
2021/11/22 04:08:19;;;;;;;10.73;5.55;;;2.00;99.90;;;;;;5018426;23;20035;-77
2021/11/22 04:10:19;;;;;;;12.43;6.03;;;2.00;99.90;;;;;;5017668;23;20014;-76
2021/11/22 04:12:21;;;;;;;11.05;5.55;;;2.10;99.90;;;;;;5018537;23;20010;-76
2021/11/22 04:14:21;;;;;;;15.40;5.45;;;2.00;99.90;;;;;;5016204;23;20469;-77
2021/11/22 04:16:23;;;;;;;16.13;7.63;;;2.10;99.90;;;;;;5017953;23;20047;-76
2021/11/22 04:18:23;;;;;;;16.33;6.30;;;2.10;99.90;;;;;;5017028;23;20011;-76
2021/11/22 04:20:24;;;;;;;13.80;6.53;;;2.10;99.90;;;;;;5017262;23;20014;-76
2021/11/22 04:22:25;;;;;;;9.57;5.70;;;2.10;99.90;;;;;;5018183;23;20006;-77
2021/11/22 04:24:25;;;;;;;13.57;5.40;;;2.10;99.90;;;;;;5015798;23;20094;-76
2021/11/22 04:26:26;;;;;;;14.07;5.90;;;2.00;99.90;;;;;;5016466;23;20011;-76
2021/11/22 04:28:27;;;;;;;11.05;5.95;;;2.00;99.90;;;;;;5016169;23;20074;-77
2021/11/22 04:30:30;;;;;;;12.73;5.20;;;2.00;99.90;;;;;;5018216;23;20007;-76
2021/11/22 04:32:31;;;;;;;10.73;5.30;;;2.00;99.90;;;;;;5018149;23;20093;-76
2021/11/22 04:34:33;;;;;;;12.68;5.90;;;2.00;99.90;;;;;;5017779;23;20325;-75
2021/11/22 04:36:34;;;;;;;10.30;5.17;;;2.00;99.90;;;;;;5018120;23;20078;-75
2021/11/22 04:38:36;;;;;;;14.15;4.80;;;2.00;99.90;;;;;;5017523;23;20010;-76
2021/11/22 04:40:37;;;;;;;21.30;5.60;;;2.00;99.90;;;;;;5017633;23;20026;-77
2021/11/22 04:42:37;;;;;;;10.40;6.10;;;2.00;99.90;;;;;;5017480;23;20015;-76
2021/11/22 04:44:38;;;;;;;8.38;4.97;;;2.10;99.90;;;;;;5017672;23;20011;-75
2021/11/22 04:46:39;;;;;;;12.68;6.07;;;2.10;99.90;;;;;;5016295;23;20018;-76
2021/11/22 04:48:39;;;;;;;16.88;5.47;;;2.10;99.90;;;;;;5016307;23;20015;-75
2021/11/22 04:50:40;;;;;;;12.35;5.93;;;2.00;99.90;;;;;;5016379;23;20065;-75
2021/11/22 04:52:41;;;;;;;14.02;5.97;;;2.00;99.90;;;;;;5015993;23;20011;-76
2021/11/22 04:54:42;;;;;;;11.27;6.25;;;2.00;99.90;;;;;;5018065;23;20073;-77
2021/11/22 04:56:42;;;;;;;19.05;6.15;;;1.90;99.90;;;;;;5016176;23;20090;-77
2021/11/22 04:58:43;;;;;;;17.50;6.20;;;1.90;99.90;;;;;;5017495;23;20015;-77
2021/11/22 05:00:44;;;;;;;19.00;7.38;;;1.80;99.90;;;;;;5018199;23;20034;-76
2021/11/22 05:02:46;;;;;;;10.88;6.43;;;1.90;99.90;;;;;;5016023;23;20134;-76
2021/11/22 05:04:46;;;;;;;11.93;5.93;;;1.90;99.90;;;;;;5017777;23;20018;-77
2021/11/22 05:06:47;;;;;;;11.45;5.47;;;1.90;99.90;;;;;;5015616;23;20349;-76
2021/11/22 05:08:47;;;;;;;10.43;5.40;;;1.90;99.90;;;;;;5017358;23;20029;-77
2021/11/22 05:10:48;;;;;;;11.27;5.20;;;1.90;99.90;;;;;;5015826;23;20067;-76
2021/11/22 05:12:49;;;;;;;10.85;5.53;;;1.80;99.90;;;;;;5015753;23;20343;-76
2021/11/22 05:14:49;;;;;;;13.52;5.30;;;1.80;99.90;;;;;;5017271;23;20082;-76
2021/11/22 05:16:51;;;;;;;19.45;8.40;;;1.80;99.90;;;;;;5017101;23;20014;-78
2021/11/22 05:18:51;;;;;;;13.93;5.53;;;1.70;99.90;;;;;;5017768;23;20526;-75
2021/11/22 05:20:52;;;;;;;9.48;5.72;;;1.60;99.90;;;;;;5017884;23;20006;-76
2021/11/22 05:22:53;;;;;;;15.98;6.03;;;1.50;99.90;;;;;;5017311;23;20011;-75
2021/11/22 05:24:53;;;;;;;13.10;6.05;;;1.50;99.90;;;;;;5017402;23;20097;-76
2021/11/22 05:26:54;;;;;;;14.05;5.85;;;1.50;99.90;;;;;;5015313;23;20022;-75
2021/11/22 05:28:55;;;;;;;10.85;5.80;;;1.40;99.90;;;;;;5016134;23;20015;-76
2021/11/22 05:30:56;;;;;;;11.50;5.75;;;1.30;99.90;;;;;;5017998;23;21131;-76
2021/11/22 05:32:59;;;;;;;14.73;6.75;;;1.30;99.90;;;;;;5015124;23;20018;-76
2021/11/22 05:34:59;;;;;;;16.73;6.75;;;1.20;99.90;;;;;;5014980;23;20007;-76
2021/11/22 05:37:00;;;;;;;15.85;6.43;;;1.10;99.90;;;;;;5016621;23;20011;-76
2021/11/22 05:39:05;;;;;;;15.00;6.38;;;1.00;99.90;;;;;;5016598;23;20551;-77
2021/11/22 05:41:06;;;;;;;13.35;6.13;;;0.90;99.90;;;;;;5016278;23;20094;-75
2021/11/22 05:43:06;;;;;;;21.90;7.25;;;0.70;99.90;;;;;;5016719;23;20287;-76
2021/11/22 05:45:07;;;;;;;12.77;6.80;;;0.60;99.90;;;;;;5016784;23;20086;-76
2021/11/22 05:47:10;;;;;;;13.05;5.82;;;0.50;99.90;;;;;;5017187;23;20324;-76
2021/11/22 05:49:10;;;;;;;17.98;6.55;;;0.40;99.90;;;;;;5016000;23;20014;-75
2021/11/22 05:51:12;;;;;;;13.48;6.55;;;0.40;99.90;;;;;;5017084;23;20011;-75
2021/11/22 05:53:13;;;;;;;8.98;6.00;;;0.30;99.90;;;;;;5017510;23;20041;-76
2021/11/22 05:55:18;;;;;;;16.38;6.45;;;0.20;99.90;;;;;;5017272;23;20039;-77
2021/11/22 05:57:19;;;;;;;16.80;6.90;;;0.20;99.90;;;;;;5017688;23;20015;-77
2021/11/22 05:59:20;;;;;;;15.77;6.78;;;0.20;99.90;;;;;;5017473;23;20026;-79
2021/11/22 06:01:20;;;;;;;13.75;7.35;;;0.20;99.90;;;;;;5016844;23;20019;-76
2021/11/22 06:03:21;;;;;;;15.05;7.05;;;0.30;99.90;;;;;;5017384;23;20038;-77
2021/11/22 06:05:22;;;;;;;12.90;5.30;;;0.30;99.90;;;;;;5016833;23;20427;-77
2021/11/22 06:07:23;;;;;;;10.93;6.05;;;0.40;99.90;;;;;;5017159;23;20015;-76
2021/11/22 06:09:24;;;;;;;13.27;6.07;;;0.40;99.90;;;;;;5014930;23;20059;-76
2021/11/22 06:11:24;;;;;;;13.98;6.70;;;0.40;99.90;;;;;;5016425;23;20011;-76
2021/11/22 06:13:25;;;;;;;18.30;6.18;;;0.30;99.90;;;;;;5015617;23;20070;-77
2021/11/22 06:15:26;;;;;;;10.75;5.82;;;0.30;99.90;;;;;;5013551;23;20026;-77
2021/11/22 06:17:27;;;;;;;20.50;6.57;;;0.20;99.90;;;;;;5014863;23;20490;-76
2021/11/22 06:19:27;;;;;;;16.92;6.38;;;0.30;99.90;;;;;;5016214;23;20011;-76
2021/11/22 06:21:28;;;;;;;17.98;6.97;;;0.20;99.90;;;;;;5014625;23;20292;-76
2021/11/22 06:23:29;;;;;;;14.20;6.63;;;0.30;99.90;;;;;;5015782;23;20108;-76
2021/11/22 06:25:29;;;;;;;14.80;6.28;;;0.20;99.90;;;;;;5015563;23;20260;-76
2021/11/22 06:27:30;;;;;;;15.38;6.63;;;0.20;99.90;;;;;;5015349;23;20035;-76
2021/11/22 06:29:31;;;;;;;14.77;6.35;;;0.10;99.90;;;;;;5016787;23;20014;-76
2021/11/22 06:31:32;;;;;;;14.77;6.95;;;0.10;99.90;;;;;;5015369;23;20013;-77
2021/11/22 06:33:32;;;;;;;17.95;7.65;;;0.00;99.90;;;;;;5016980;23;20070;-77
2021/11/22 06:35:36;;;;;;;13.90;6.70;;;0.00;99.90;;;;;;5018357;23;20424;-75
2021/11/22 06:37:36;;;;;;;;;;;0.00;99.90;;;;;;5018541;23;20007;-77
2021/11/22 06:39:38;;;;;;;14.57;6.70;;;-0.10;99.90;;;;;;5017950;23;20211;-76
2021/11/22 06:41:39;;;;;;;16.77;6.15;;;-0.10;99.90;;;;;;5017503;23;20110;-75
2021/11/22 06:43:40;;;;;;;12.55;6.63;;;-0.20;99.90;;;;;;5016702;23;20069;-78
2021/11/22 06:45:40;;;;;;;16.70;6.00;;;-0.20;99.90;;;;;;5015693;23;20316;-76
2021/11/22 06:47:41;;;;;;;15.15;6.22;;;-0.20;99.90;;;;;;5017734;23;20101;-77
2021/11/22 06:49:41;;;;;;;15.18;6.18;;;-0.10;99.90;;;;;;5018369;23;20010;-77
2021/11/22 06:51:42;;;;;;;8.52;5.88;;;-0.10;99.90;;;;;;5003367;23;20106;-77
2021/11/22 06:53:43;;;;;;;14.20;6.07;;;-0.10;99.90;;;;;;5020831;23;20412;-77
2021/11/22 06:55:43;;;;;;;17.58;7.20;;;-0.10;99.90;;;;;;5016515;23;20018;-78
2021/11/22 06:57:44;;;;;;;23.25;7.25;;;-0.20;99.90;;;;;;5015922;23;20014;-77
2021/11/22 06:59:46;;;;;;;12.35;6.10;;;-0.20;99.90;;;;;;5018091;23;20546;-75
2021/11/22 07:01:46;;;;;;;17.40;6.95;;;-0.10;99.90;;;;;;5018106;23;20319;-78
2021/11/22 07:03:47;;;;;;;14.00;6.63;;;0.00;99.90;;;;;;5017981;23;20050;-78
2021/11/22 07:05:48;;;;;;;19.17;6.63;;;0.00;99.90;;;;;;5018261;23;20323;-78
2021/11/22 07:07:49;;;;;;;16.25;8.07;;;0.00;99.90;;;;;;5017293;23;20007;-77
2021/11/22 07:09:51;;;;;;;22.38;7.25;;;0.00;99.90;;;;;;5018114;23;20436;-76
2021/11/22 07:11:52;;;;;;;19.45;7.45;;;0.10;99.90;;;;;;5014911;23;20014;-77
2021/11/22 07:13:53;;;;;;;19.67;6.53;;;0.20;99.90;;;;;;5015268;23;20090;-77
2021/11/22 07:15:54;;;;;;;12.82;6.72;;;0.10;99.90;;;;;;5018080;23;20082;-77
2021/11/22 07:17:55;;;;;;;20.30;7.95;;;0.10;99.90;;;;;;5017999;23;20327;-77
2021/11/22 07:19:56;;;;;;;21.98;9.48;;;0.10;99.90;;;;;;5017859;23;20007;-77
2021/11/22 07:22:00;;;;;;;14.60;6.88;;;0.10;99.90;;;;;;5013662;23;20022;-75
2021/11/22 07:24:01;;;;;;;16.45;7.70;;;0.20;99.90;;;;;;5012836;23;20355;-77
2021/11/22 07:26:02;;;;;;;16.58;7.57;;;0.30;99.90;;;;;;5014184;23;20027;-77
2021/11/22 07:28:02;;;;;;;20.90;8.18;;;0.30;99.90;;;;;;5014974;23;20006;-77
2021/11/22 07:30:05;;;;;;;13.48;7.03;;;0.40;99.90;;;;;;5015709;23;20011;-77
2021/11/22 07:32:06;;;;;;;22.13;8.05;;;0.50;99.90;;;;;;5016464;23;20300;-77
2021/11/22 07:34:07;;;;;;;17.73;7.82;;;0.50;99.90;;;;;;5014725;23;20015;-77
2021/11/22 07:36:08;;;;;;;16.00;7.13;;;0.60;99.90;;;;;;5014666;23;20381;-77
2021/11/22 07:38:09;;;;;;;18.67;8.18;;;0.60;99.90;;;;;;5016853;23;20090;-77
2021/11/22 07:40:10;;;;;;;15.73;7.70;;;0.70;99.90;;;;;;5016830;23;20432;-77
2021/11/22 07:42:11;;;;;;;19.60;9.15;;;0.70;99.90;;;;;;5008539;23;20033;-76
2021/11/22 07:44:11;;;;;;;17.20;7.70;;;0.80;99.90;;;;;;5007984;23;20049;-77
2021/11/22 07:46:12;;;;;;;19.95;8.57;;;0.80;99.90;;;;;;5010675;23;20015;-77
2021/11/22 07:48:14;;;;;;;21.00;8.02;;;0.80;99.90;;;;;;5016180;23;20347;-77
2021/11/22 07:50:26;;;;;;;20.90;10.63;;;0.80;99.90;;;;;;5015773;23;20019;-77
2021/11/22 07:52:27;;;;;;;20.10;8.40;;;0.70;99.90;;;;;;5016151;23;20011;-76
2021/11/22 07:54:28;;;;;;;17.95;9.05;;;0.80;99.90;;;;;;5015646;23;20041;-77
2021/11/22 07:56:28;;;;;;;25.27;8.30;;;0.80;99.90;;;;;;5013990;23;20018;-76
2021/11/22 07:58:29;;;;;;;16.10;7.80;;;0.90;99.90;;;;;;5014469;23;20003;-77
2021/11/22 08:00:30;;;;;;;17.23;7.75;;;1.00;99.90;;;;;;5013483;23;20082;-78
2021/11/22 08:02:31;;;;;;;22.33;8.35;;;1.10;99.90;;;;;;5017180;23;20058;-77
2021/11/22 08:04:32;;;;;;;16.05;8.85;;;1.10;99.90;;;;;;5016342;23;20018;-77
2021/11/22 08:06:32;;;;;;;13.82;7.85;;;1.10;99.90;;;;;;5017020;23;20117;-77
2021/11/22 08:08:37;;;;;;;13.98;8.20;;;1.20;99.90;;;;;;5016804;23;20030;-77
2021/11/22 08:10:38;;;;;;;15.40;8.32;;;1.20;99.90;;;;;;5017865;23;20038;-78
2021/11/22 08:12:40;;;;;;;14.05;8.70;;;1.20;99.90;;;;;;5015194;23;20090;-77
2021/11/22 08:14:41;;;;;;;14.73;7.85;;;1.30;99.90;;;;;;5017326;23;20094;-78
2021/11/22 08:16:42;;;;;;;20.05;8.13;;;1.40;99.90;;;;;;5016545;23;20026;-77
2021/11/22 08:18:43;;;;;;;15.13;8.73;;;1.40;99.90;;;;;;5015348;23;20019;-77
2021/11/22 08:20:44;;;;;;;16.92;9.20;;;1.50;99.90;;;;;;5016889;23;20007;-78
2021/11/22 08:22:46;;;;;;;29.88;10.27;;;1.50;99.90;;;;;;5017327;23;20034;-78
2021/11/22 08:24:50;;;;;;;15.75;8.68;;;1.60;99.90;;;;;;5016796;23;20011;-78
2021/11/22 08:26:51;;;;;;;14.93;8.82;;;1.60;99.90;;;;;;5014524;23;20110;-77
2021/11/22 08:28:52;;;;;;;14.18;8.40;;;1.70;99.90;;;;;;5016364;23;20010;-78
2021/11/22 08:30:53;;;;;;;22.02;8.50;;;1.70;99.90;;;;;;5017129;23;20011;-78
2021/11/22 08:32:56;;;;;;;19.02;8.82;;;1.70;99.90;;;;;;5017402;23;20011;-77
2021/11/22 08:34:56;;;;;;;;;;;1.70;99.90;;;;;;5017576;23;20431;-77
2021/11/22 08:36:57;;;;;;;19.08;7.65;;;1.70;99.90;;;;;;5014310;23;19920;-78
2021/11/22 08:38:58;;;;;;;15.73;7.85;;;1.70;99.90;;;;;;5015905;23;20010;-83
2021/11/22 08:40:58;;;;;;;16.52;8.68;;;1.70;99.90;;;;;;5016466;23;20328;-82
2021/11/22 08:42:59;;;;;;;16.85;8.20;;;1.80;99.90;;;;;;5015954;23;20082;-80
2021/11/22 08:45:00;;;;;;;18.45;8.82;;;1.80;99.90;;;;;;5016289;23;20013;-80
2021/11/22 08:47:02;;;;;;;19.02;8.95;;;1.90;99.90;;;;;;5014026;23;20705;-80
2021/11/22 08:49:04;;;;;;;17.10;9.95;;;1.90;99.90;;;;;;5016122;23;20073;-81
2021/11/22 08:51:08;;;;;;;19.80;10.90;;;2.00;99.90;;;;;;5016246;23;20010;-79
2021/11/22 08:53:08;;;;;;;15.65;8.77;;;2.10;99.90;;;;;;5017671;23;20035;-81
2021/11/22 08:55:11;;;;;;;17.58;8.68;;;2.20;99.90;;;;;;5017100;23;20347;-80
2021/11/22 08:57:12;;;;;;;14.60;9.35;;;2.30;99.90;;;;;;5017237;23;20034;-82
2021/11/22 08:59:14;;;;;;;13.18;8.18;;;2.30;99.90;;;;;;5013864;23;20011;-81
2021/11/22 09:01:14;;;;;;;19.02;8.10;;;2.30;99.90;;;;;;5017273;23;20015;-81
2021/11/22 09:03:15;;;;;;;11.15;7.20;;;2.30;99.90;;;;;;5017085;23;20070;-82
2021/11/22 09:05:16;;;;;;;18.73;7.78;;;2.30;99.90;;;;;;5017585;23;20015;-81
2021/11/22 09:07:17;;;;;;;14.93;8.68;;;2.30;99.90;;;;;;5015451;23;20015;-80
2021/11/22 09:09:18;;;;;;;13.55;8.05;;;2.40;99.90;;;;;;5017109;23;20462;-80
2021/11/22 09:11:20;;;;;;;19.85;9.32;;;2.50;99.90;;;;;;5015778;23;20795;-82
2021/11/22 09:13:22;;;;;;;13.25;8.27;;;2.60;99.90;;;;;;5017603;23;20372;-82
2021/11/22 09:15:23;;;;;;;19.10;9.57;;;2.80;99.90;;;;;;5015714;23;20444;-83
2021/11/22 09:17:24;;;;;;;15.43;9.30;;;2.80;99.90;;;;;;5015812;23;20018;-81
2021/11/22 09:19:24;;;;;;;16.02;8.15;;;2.80;99.90;;;;;;5017865;23;20011;-80
2021/11/22 09:21:29;;;;;;;17.20;7.45;;;2.80;99.90;;;;;;5017765;23;20042;-82
2021/11/22 09:23:31;;;;;;;18.35;8.63;;;3.00;99.90;;;;;;5017895;23;20017;-80
2021/11/22 09:25:33;;;;;;;12.57;7.85;;;3.20;99.90;;;;;;5017433;23;20019;-80
2021/11/22 09:27:34;;;;;;;12.88;7.10;;;3.20;99.90;;;;;;5015721;23;20367;-81
2021/11/22 09:29:37;;;;;;;10.13;6.57;;;3.30;99.90;;;;;;5016790;23;20050;-81
2021/11/22 09:31:38;;;;;;;12.13;5.77;;;3.40;99.90;;;;;;5016089;23;20010;-80
2021/11/22 09:33:40;;;;;;;12.63;6.43;;;3.40;99.90;;;;;;5015594;23;20330;-80
2021/11/22 09:35:42;;;;;;;13.52;6.32;;;3.50;99.90;;;;;;5018083;23;20328;-79
2021/11/22 09:37:42;;;;;;;16.42;6.88;;;3.50;99.90;;;;;;5015532;23;20007;-80
2021/11/22 09:39:43;;;;;;;17.35;5.65;;;3.60;99.90;;;;;;5017241;23;20011;-80
2021/11/22 09:41:47;;;;;;;13.07;6.03;;;3.60;99.90;;;;;;5016652;23;20019;-81
2021/11/22 09:43:49;;;;;;;13.80;6.68;;;3.70;99.90;;;;;;5017773;23;20011;-81
2021/11/22 09:45:51;;;;;;;12.70;5.30;;;3.80;99.90;;;;;;5017061;23;20034;-81
2021/11/22 09:47:52;;;;;;;12.82;5.30;;;3.80;99.90;;;;;;5017609;23;20014;-80
2021/11/22 09:49:54;;;;;;;7.50;5.35;;;3.80;99.90;;;;;;5016769;23;20324;-81
2021/11/22 09:51:56;;;;;;;13.88;6.07;;;3.90;99.90;;;;;;5018037;23;20015;-81
2021/11/22 09:53:57;;;;;;;15.23;6.00;;;4.00;99.90;;;;;;5016722;23;20014;-79
2021/11/22 09:55:58;;;;;;;12.88;6.35;;;4.10;99.90;;;;;;5015575;23;20140;-80
2021/11/22 09:58:02;;;;;;;14.18;6.00;;;4.10;99.90;;;;;;5015654;23;20014;-80
2021/11/22 10:00:08;;;;;;;10.45;5.47;;;4.20;99.90;;;;;;5016314;23;20356;-79
2021/11/22 10:02:08;;;;;;;13.55;5.57;;;4.20;99.90;;;;;;5017329;23;20003;-82
2021/11/22 10:04:13;;;;;;;12.32;6.38;;;4.30;99.90;;;;;;5017375;23;20447;-80
2021/11/22 10:06:13;;;;;;;12.82;5.40;;;4.40;99.90;;;;;;5017784;23;20050;-81
2021/11/22 10:08:19;;;;;;;10.82;5.25;;;4.50;99.90;;;;;;5016905;23;20018;-80
2021/11/22 10:10:19;;;;;;;7.03;5.03;;;4.60;99.90;;;;;;5015666;23;20007;-81
2021/11/22 10:12:24;;;;;;;9.18;4.78;;;4.90;99.90;;;;;;5015062;23;20436;-80
2021/11/22 10:14:29;;;;;;;10.85;6.15;;;5.70;99.90;;;;;;5017556;23;20007;-80
2021/11/22 10:16:31;;;;;;;13.68;4.90;;;6.60;99.90;;;;;;5015264;23;20029;-81
2021/11/22 10:18:38;;;;;;;9.93;5.10;;;7.60;99.90;;;;;;5017796;23;20007;-82
2021/11/22 10:20:39;;;;;;;8.63;5.10;;;8.20;99.90;;;;;;5016783;23;20425;-81
2021/11/22 10:22:48;;;;;;;6.20;4.47;;;8.80;99.90;;;;;;5015679;23;20015;-80
2021/11/22 10:25:37;;;;;;;10.80;5.68;;;9.30;99.90;;;;;;5016918;23;20014;-80
2021/11/22 10:27:39;;;;;;;12.77;4.38;;;9.80;99.90;;;;;;5009242;23;20018;-80
2021/11/22 10:29:39;;;;;;;8.20;3.97;;;10.20;99.90;;;;;;5017235;23;20065;-80
2021/11/22 10:31:40;;;;;;;10.45;4.05;;;10.50;99.90;;;;;;5016392;23;20014;-83
2021/11/22 10:33:42;;;;;;;6.07;2.92;;;10.60;99.90;;;;;;5016131;23;20035;-81
2021/11/22 10:35:43;;;;;;;6.63;2.75;;;11.10;99.90;;;;;;5017223;23;20339;-78